Time;durP1;ratioP1;P1;durP2;ratioP2;P2;SDS_P1;SDS_P2;PMS_P1;PMS_P2;Temp;Humidity;BMP_temperature;BMP_pressure;BME280_temperature;BME280_humidity;BME280_pressure;Samples;Min_cycle;Max_cycle;Signal;HPM_P1;HPM_P2
2021/08/20 00:00:08;;;;;;;9.90;8.13;;;15.90;99.90;;;;;;5052699;28;20025;-61
2021/08/20 00:02:34;;;;;;;9.68;7.90;;;15.90;99.90;;;;;;5052169;28;20513;-62
2021/08/20 00:05:00;;;;;;;10.13;7.38;;;15.90;99.90;;;;;;5052957;28;20112;-61
2021/08/20 00:07:26;;;;;;;8.00;7.18;;;15.90;99.90;;;;;;5052917;28;20107;-61
2021/08/20 00:09:54;;;;;;;11.27;7.38;;;15.90;99.90;;;;;;5051401;28;20503;-62
2021/08/20 00:12:20;;;;;;;8.23;6.50;;;15.90;99.90;;;;;;5048453;28;20070;-61
2021/08/20 00:14:46;;;;;;;9.95;7.40;;;15.90;99.90;;;;;;5052772;28;20092;-62
2021/08/20 00:17:11;;;;;;;7.45;6.57;;;15.90;99.90;;;;;;5053173;28;20572;-61
2021/08/20 00:19:37;;;;;;;8.77;6.93;;;15.90;99.90;;;;;;5051907;28;20020;-62
2021/08/20 00:22:06;;;;;;;8.32;6.50;;;15.90;99.90;;;;;;5052359;28;20029;-61
2021/08/20 00:24:33;;;;;;;7.53;6.72;;;16.00;99.90;;;;;;5052347;28;20021;-62
2021/08/20 00:26:58;;;;;;;8.80;7.72;;;15.90;99.90;;;;;;5052236;28;20021;-61
2021/08/20 00:29:24;;;;;;;9.80;7.55;;;15.90;99.90;;;;;;5052423;28;20469;-61
2021/08/20 00:31:49;;;;;;;8.23;6.68;;;15.80;99.90;;;;;;5052016;28;20018;-61
2021/08/20 00:34:15;;;;;;;9.00;6.95;;;15.80;99.90;;;;;;5051846;28;20396;-61
2021/08/20 00:36:41;;;;;;;8.98;7.22;;;15.80;99.90;;;;;;5052361;28;20036;-61
2021/08/20 00:39:06;;;;;;;9.50;7.82;;;15.80;99.90;;;;;;5052337;28;20021;-61
2021/08/20 00:41:32;;;;;;;9.43;7.47;;;15.80;99.90;;;;;;5052133;28;20036;-62
2021/08/20 00:43:59;;;;;;;10.60;8.45;;;15.80;99.90;;;;;;5050692;28;20032;-62
2021/08/20 00:46:24;;;;;;;10.15;9.07;;;15.70;99.90;;;;;;5051561;28;20431;-62
2021/08/20 00:48:50;;;;;;;12.45;10.88;;;15.60;99.90;;;;;;5052445;28;20017;-61
2021/08/20 00:51:23;;;;;;;16.35;12.20;;;15.50;99.90;;;;;;5051951;28;20384;-61
2021/08/20 00:53:50;;;;;;;16.30;12.77;;;15.50;99.90;;;;;;5051690;28;20021;-61
2021/08/20 00:56:16;;;;;;;14.85;12.23;;;15.30;99.90;;;;;;5051630;28;20048;-62
2021/08/20 00:58:42;;;;;;;11.45;10.25;;;15.30;99.90;;;;;;5051819;28;20056;-61
2021/08/20 01:01:08;;;;;;;13.23;11.15;;;15.30;99.90;;;;;;5051580;28;20052;-62
2021/08/20 01:03:35;;;;;;;14.50;11.52;;;15.40;99.90;;;;;;5051693;28;20025;-61
2021/08/20 01:06:02;;;;;;;12.95;11.27;;;15.40;99.90;;;;;;5049515;28;20108;-61
2021/08/20 01:08:30;;;;;;;14.68;10.98;;;15.40;99.90;;;;;;5051767;28;20033;-61
2021/08/20 01:10:56;;;;;;;14.27;10.88;;;15.40;99.90;;;;;;5051525;28;20040;-61
2021/08/20 01:13:22;;;;;;;16.02;13.75;;;15.40;99.90;;;;;;5051359;28;20025;-61
2021/08/20 01:15:48;;;;;;;12.68;11.20;;;15.40;99.90;;;;;;5051436;28;20017;-61
2021/08/20 01:18:23;;;;;;;13.68;12.20;;;15.30;99.90;;;;;;5051550;28;20062;-62
2021/08/20 01:20:49;;;;;;;13.40;11.98;;;15.30;99.90;;;;;;5051635;28;20017;-61
2021/08/20 01:23:17;;;;;;;18.98;11.70;;;15.30;99.90;;;;;;5030722;28;20028;-61
2021/08/20 01:25:44;;;;;;;11.65;9.93;;;15.30;99.90;;;;;;5051362;28;20104;-61
2021/08/20 01:28:09;;;;;;;12.48;11.18;;;15.30;99.90;;;;;;5051518;28;20032;-61
2021/08/20 01:30:36;;;;;;;17.27;12.80;;;15.20;99.90;;;;;;5051010;28;20423;-61
2021/08/20 01:33:02;;;;;;;14.07;11.55;;;15.20;99.90;;;;;;5051182;28;20025;-61
2021/08/20 01:35:28;;;;;;;17.40;10.73;;;15.20;99.90;;;;;;5051639;28;20087;-61
2021/08/20 01:37:54;;;;;;;13.02;11.73;;;15.20;99.90;;;;;;5051418;28;20424;-62
2021/08/20 01:40:20;;;;;;;12.38;11.07;;;15.30;99.90;;;;;;5031064;28;20062;-62
2021/08/20 01:42:45;;;;;;;15.30;12.10;;;15.30;99.90;;;;;;5051069;28;20860;-61
2021/08/20 01:45:11;;;;;;;16.98;13.02;;;15.30;99.90;;;;;;5050887;28;20098;-61
2021/08/20 01:47:37;;;;;;;15.07;13.38;;;15.30;99.90;;;;;;5047655;28;20029;-61
2021/08/20 01:50:06;;;;;;;13.48;11.60;;;15.30;99.90;;;;;;5051323;28;20053;-61
2021/08/20 01:52:32;;;;;;;;;;;15.30;99.90;;;;;;5048631;28;20033;-61
2021/08/20 01:54:57;;;;;;;12.88;11.10;;;15.30;99.90;;;;;;5050998;28;19905;-61
2021/08/20 01:57:23;;;;;;;15.07;12.50;;;15.30;99.90;;;;;;5033268;28;20029;-61
2021/08/20 01:59:48;;;;;;;16.83;11.52;;;15.30;99.90;;;;;;5051065;28;20013;-62
2021/08/20 02:02:14;;;;;;;15.80;11.88;;;15.30;99.90;;;;;;5051065;28;20043;-61
2021/08/20 02:04:40;;;;;;;17.88;13.60;;;15.40;99.90;;;;;;5051032;28;20017;-62
2021/08/20 02:07:06;;;;;;;17.33;13.30;;;15.40;99.90;;;;;;5033277;28;20029;-61
2021/08/20 02:09:31;;;;;;;17.83;14.23;;;15.30;99.90;;;;;;5051075;28;20029;-61
2021/08/20 02:11:57;;;;;;;16.42;13.95;;;15.40;99.90;;;;;;5050533;28;20144;-62
2021/08/20 02:14:22;;;;;;;18.00;15.25;;;15.40;99.90;;;;;;5050971;28;20021;-61
2021/08/20 02:16:48;;;;;;;18.40;15.05;;;15.40;99.90;;;;;;5033232;28;20492;-61
2021/08/20 02:19:13;;;;;;;20.02;17.55;;;15.40;99.90;;;;;;5051020;28;20551;-61
2021/08/20 02:21:40;;;;;;;19.48;16.05;;;15.40;99.90;;;;;;5051071;28;20025;-61
2021/08/20 02:24:05;;;;;;;22.95;16.50;;;15.40;99.90;;;;;;5050645;28;20021;-61
2021/08/20 02:26:31;;;;;;;25.00;19.02;;;15.30;99.90;;;;;;5050861;28;20392;-62
2021/08/20 02:28:56;;;;;;;20.50;17.23;;;15.30;99.90;;;;;;5050524;28;20031;-62
2021/08/20 02:31:22;;;;;;;19.77;16.00;;;15.30;99.90;;;;;;5051215;28;20107;-61
2021/08/20 02:33:49;;;;;;;19.33;15.70;;;15.30;99.90;;;;;;5050842;28;20068;-61
2021/08/20 02:36:15;;;;;;;17.70;14.68;;;15.30;99.90;;;;;;5051004;28;20029;-61
2021/08/20 02:38:42;;;;;;;17.95;15.27;;;15.30;99.90;;;;;;5033157;28;20017;-61
2021/08/20 02:41:08;;;;;;;19.90;15.82;;;15.30;99.90;;;;;;5050587;28;20104;-61
2021/08/20 02:43:33;;;;;;;17.33;14.60;;;15.30;99.90;;;;;;5053238;28;20040;-62
2021/08/20 02:45:59;;;;;;;14.60;13.05;;;15.30;99.90;;;;;;5053915;28;20040;-61
2021/08/20 02:48:26;;;;;;;18.00;14.80;;;15.30;99.90;;;;;;5054529;28;20450;-61
2021/08/20 02:50:51;;;;;;;17.80;15.90;;;15.30;99.90;;;;;;5054483;28;20017;-61
2021/08/20 02:53:17;;;;;;;18.25;14.95;;;15.30;99.90;;;;;;5053703;28;20028;-61
2021/08/20 02:55:42;;;;;;;18.70;15.52;;;15.30;99.90;;;;;;5054152;28;20074;-61
2021/08/20 02:58:08;;;;;;;18.85;15.00;;;15.30;99.90;;;;;;5054081;28;20465;-61
2021/08/20 03:00:34;;;;;;;17.27;14.45;;;15.30;99.90;;;;;;5054334;28;20354;-61
2021/08/20 03:03:00;;;;;;;21.88;15.68;;;15.30;99.90;;;;;;5053709;28;20103;-61
2021/08/20 03:05:25;;;;;;;20.70;15.52;;;15.30;99.90;;;;;;5054033;28;20071;-61
2021/08/20 03:07:51;;;;;;;18.05;14.80;;;15.30;99.90;;;;;;5054054;28;20083;-61
2021/08/20 03:10:17;;;;;;;17.23;13.95;;;15.30;99.90;;;;;;5053412;28;20029;-61
2021/08/20 03:12:42;;;;;;;20.55;14.90;;;15.30;99.90;;;;;;5053981;28;20021;-61
2021/08/20 03:15:08;;;;;;;15.93;14.00;;;15.40;99.90;;;;;;5053611;28;20365;-61
2021/08/20 03:17:34;;;;;;;17.92;14.70;;;15.40;99.90;;;;;;5053838;28;20104;-61
2021/08/20 03:19:59;;;;;;;20.17;17.20;;;15.40;99.90;;;;;;5035802;28;20017;-61
2021/08/20 03:22:25;;;;;;;22.92;19.02;;;15.40;99.90;;;;;;5053416;28;20029;-61
2021/08/20 03:24:51;;;;;;;19.58;14.85;;;15.40;99.90;;;;;;5053208;28;20384;-61
2021/08/20 03:27:17;;;;;;;20.92;16.20;;;15.40;99.90;;;;;;5053448;28;20033;-61
2021/08/20 03:29:42;;;;;;;20.55;17.52;;;15.40;99.90;;;;;;5053737;28;20021;-61
2021/08/20 03:32:08;;;;;;;22.70;18.85;;;15.40;99.90;;;;;;5053294;28;20473;-61
2021/08/20 03:34:33;;;;;;;23.17;17.83;;;15.40;99.90;;;;;;5053271;28;20041;-61
2021/08/20 03:36:59;;;;;;;24.35;17.95;;;15.30;99.90;;;;;;5035553;28;20028;-61
2021/08/20 03:39:25;;;;;;;21.70;16.30;;;15.30;99.90;;;;;;5053089;28;20116;-61
2021/08/20 03:41:50;;;;;;;17.75;14.25;;;15.30;99.90;;;;;;5053509;28;20024;-61
2021/08/20 03:44:16;;;;;;;17.48;14.95;;;15.30;99.90;;;;;;5053040;28;20037;-62
2021/08/20 03:46:41;;;;;;;20.70;17.08;;;15.30;99.90;;;;;;5030118;28;20021;-61
2021/08/20 03:49:07;;;;;;;17.23;15.00;;;15.40;99.90;;;;;;5053270;28;20104;-62
2021/08/20 03:51:32;;;;;;;21.75;15.15;;;15.30;99.90;;;;;;5035125;28;20029;-61
2021/08/20 03:53:58;;;;;;;23.13;17.60;;;15.40;99.90;;;;;;5051475;28;20021;-62
2021/08/20 03:56:24;;;;;;;22.15;18.38;;;15.30;99.90;;;;;;5052979;28;20435;-61
2021/08/20 03:58:49;;;;;;;19.13;16.45;;;15.30;99.90;;;;;;5035281;28;20047;-61
2021/08/20 04:01:15;;;;;;;23.85;17.02;;;15.30;99.90;;;;;;5052689;28;20025;-61
2021/08/20 04:03:40;;;;;;;23.67;18.48;;;15.30;99.90;;;;;;5052688;28;20112;-61
2021/08/20 04:06:10;;;;;;;24.67;18.08;;;15.30;99.90;;;;;;5032229;28;20045;-61
2021/08/20 04:08:36;;;;;;;;;;;15.20;99.90;;;;;;5052981;28;20388;-61
2021/08/20 04:11:02;;;;;;;20.10;16.20;;;15.20;99.90;;;;;;5052980;28;20348;-61
2021/08/20 04:13:32;;;;;;;26.17;18.13;;;15.10;99.90;;;;;;5052708;28;20032;-61
2021/08/20 04:15:57;;;;;;;24.40;18.67;;;15.20;99.90;;;;;;5035047;28;20021;-61
2021/08/20 04:18:23;;;;;;;21.25;17.73;;;15.20;99.90;;;;;;5052543;28;20013;-61
2021/08/20 04:20:48;;;;;;;20.30;15.73;;;15.20;99.90;;;;;;5052446;28;20120;-61
2021/08/20 04:23:14;;;;;;;21.50;16.63;;;15.20;99.90;;;;;;5052249;28;20384;-61
2021/08/20 04:25:39;;;;;;;24.13;17.33;;;15.20;99.90;;;;;;5052238;28;20079;-61
2021/08/20 04:28:05;;;;;;;26.30;18.48;;;15.20;99.90;;;;;;5052858;28;20055;-61
2021/08/20 04:30:30;;;;;;;24.73;18.95;;;15.20;99.90;;;;;;5052537;28;20484;-61
2021/08/20 04:32:57;;;;;;;26.23;20.80;;;15.20;99.90;;;;;;5052017;28;20536;-61
2021/08/20 04:35:24;;;;;;;27.73;19.95;;;15.20;99.90;;;;;;5034351;28;20055;-62
2021/08/20 04:37:50;;;;;;;27.15;20.00;;;15.20;99.90;;;;;;5052117;28;20071;-61
2021/08/20 04:40:16;;;;;;;30.45;21.38;;;15.20;99.90;;;;;;5031717;28;20021;-61
2021/08/20 04:42:41;;;;;;;25.80;18.42;;;15.20;99.90;;;;;;5052041;28;20029;-61
2021/08/20 04:45:07;;;;;;;26.90;18.25;;;15.20;99.90;;;;;;5052015;28;20049;-61
2021/08/20 04:47:33;;;;;;;27.92;20.77;;;15.20;99.90;;;;;;5052119;28;20032;-61
2021/08/20 04:49:58;;;;;;;26.90;19.17;;;15.20;99.90;;;;;;5051635;28;20021;-61
2021/08/20 04:52:24;;;;;;;26.63;19.90;;;15.30;99.90;;;;;;5033976;28;20024;-61
2021/08/20 04:54:50;;;;;;;30.45;22.60;;;15.30;99.90;;;;;;5052048;28;20381;-61
2021/08/20 04:57:15;;;;;;;27.17;19.55;;;15.30;99.90;;;;;;5051944;28;20481;-61
2021/08/20 04:59:41;;;;;;;31.52;22.73;;;15.30;99.90;;;;;;5051770;28;20032;-61
2021/08/20 05:02:07;;;;;;;30.90;21.67;;;15.30;99.90;;;;;;5051637;28;20021;-61
2021/08/20 05:04:34;;;;;;;27.35;19.40;;;15.20;99.90;;;;;;5051606;28;20114;-61
2021/08/20 05:07:00;;;;;;;24.60;17.80;;;15.30;99.90;;;;;;5048737;28;20104;-61
2021/08/20 05:09:26;;;;;;;26.52;18.48;;;15.30;99.90;;;;;;5050908;28;20093;-61
2021/08/20 05:11:52;;;;;;;23.33;17.30;;;15.30;99.90;;;;;;5033726;28;20060;-61
2021/08/20 05:14:18;;;;;;;26.05;18.13;;;15.30;99.90;;;;;;5036496;28;20025;-61
2021/08/20 05:16:47;;;;;;;25.10;17.27;;;15.40;99.90;;;;;;5052384;28;20032;-61
2021/08/20 05:19:23;;;;;;;25.13;19.23;;;15.40;99.90;;;;;;5052232;28;20480;-61
2021/08/20 05:21:48;;;;;;;24.23;17.83;;;15.40;99.90;;;;;;5011106;28;20125;-61
2021/08/20 05:24:14;;;;;;;24.30;18.50;;;15.40;99.90;;;;;;5026665;28;20533;-61
2021/08/20 05:26:39;;;;;;;28.80;21.00;;;15.50;99.90;;;;;;5045045;28;20021;-61
2021/08/20 05:29:05;;;;;;;26.65;17.95;;;15.50;99.90;;;;;;5052092;28;20392;-61
2021/08/20 05:31:31;;;;;;;22.42;16.75;;;15.50;99.90;;;;;;5052390;28;20082;-61
2021/08/20 05:33:56;;;;;;;25.23;18.02;;;15.50;99.90;;;;;;5050826;28;20029;-61
2021/08/20 05:36:22;;;;;;;23.02;17.30;;;15.60;99.90;;;;;;5052471;28;20017;-62
2021/08/20 05:38:47;;;;;;;26.77;17.50;;;15.60;99.90;;;;;;5052854;28;20063;-61
2021/08/20 05:41:13;;;;;;;18.27;14.15;;;15.60;99.90;;;;;;5052454;28;20024;-61
2021/08/20 05:43:38;;;;;;;20.38;15.75;;;15.70;99.90;;;;;;5052451;28;20052;-61
2021/08/20 05:46:04;;;;;;;19.67;15.13;;;15.70;99.90;;;;;;5034170;28;20052;-61
2021/08/20 05:48:29;;;;;;;22.10;16.40;;;15.70;99.90;;;;;;5052278;28;20162;-61
2021/08/20 05:50:55;;;;;;;23.67;16.50;;;15.80;99.90;;;;;;5052504;28;20166;-61
2021/08/20 05:53:21;;;;;;;19.83;15.82;;;15.80;99.90;;;;;;5052229;28;20088;-61
2021/08/20 05:55:46;;;;;;;23.13;17.13;;;15.80;99.90;;;;;;5052265;28;20026;-61
2021/08/20 05:58:12;;;;;;;23.58;17.10;;;15.80;99.90;;;;;;5034570;28;20465;-61
2021/08/20 06:00:37;;;;;;;21.00;15.50;;;15.90;99.90;;;;;;5052205;28;20033;-61
2021/08/20 06:03:03;;;;;;;22.70;15.93;;;15.90;99.90;;;;;;5034373;28;20021;-61
2021/08/20 06:05:28;;;;;;;21.40;16.50;;;15.90;99.90;;;;;;5052141;28;20040;-61
2021/08/20 06:07:54;;;;;;;20.80;15.80;;;15.90;99.90;;;;;;5052197;28;20063;-61
2021/08/20 06:10:56;;;;;;;22.83;16.17;;;16.00;99.90;;;;;;5052194;28;20538;-61
2021/08/20 06:13:22;;;;;;;20.65;15.73;;;16.00;99.90;;;;;;5052324;28;20028;-61
2021/08/20 06:15:47;;;;;;;20.67;15.80;;;16.10;99.90;;;;;;5034502;28;20021;-61
2021/08/20 06:18:13;;;;;;;19.50;15.63;;;16.10;99.90;;;;;;5053500;28;20421;-61
2021/08/20 06:20:39;;;;;;;18.40;14.93;;;16.20;99.90;;;;;;5054291;28;20483;-61
2021/08/20 06:23:04;;;;;;;18.20;13.13;;;16.20;99.90;;;;;;5055926;28;20021;-62
2021/08/20 06:25:30;;;;;;;19.58;14.07;;;16.30;99.90;;;;;;5055853;28;20384;-61
2021/08/20 06:27:55;;;;;;;16.65;11.82;;;16.30;99.90;;;;;;5055624;28;20488;-61
2021/08/20 06:30:20;;;;;;;13.13;11.43;;;16.40;99.90;;;;;;5055781;28;20094;-61
2021/08/20 06:32:46;;;;;;;16.85;13.20;;;16.40;99.90;;;;;;5055683;28;20029;-61
2021/08/20 06:35:11;;;;;;;15.50;12.65;;;16.50;99.90;;;;;;5055412;28;20111;-61
2021/08/20 06:37:37;;;;;;;14.63;10.57;;;16.50;99.90;;;;;;5055699;28;20033;-61
2021/08/20 06:40:03;;;;;;;14.27;11.38;;;16.50;99.90;;;;;;5055670;28;20029;-61
2021/08/20 06:42:29;;;;;;;14.85;11.48;;;16.60;99.90;;;;;;5055036;28;20116;-61
2021/08/20 06:44:54;;;;;;;14.65;12.07;;;16.60;99.90;;;;;;5054266;28;20128;-61
2021/08/20 06:47:28;;;;;;;14.75;11.13;;;16.60;99.90;;;;;;5054223;28;20025;-61
2021/08/20 06:50:09;;;;;;;15.80;11.82;;;16.80;99.90;;;;;;5052856;28;20408;-61
2021/08/20 06:52:34;;;;;;;15.52;12.10;;;16.80;99.90;;;;;;5052121;28;20021;-61
2021/08/20 06:55:16;;;;;;;12.98;9.63;;;16.90;99.90;;;;;;5054782;28;20380;-61
2021/08/20 06:57:41;;;;;;;15.93;11.95;;;17.00;99.90;;;;;;5048898;28;20024;-61
2021/08/20 07:00:07;;;;;;;13.65;11.77;;;17.00;99.90;;;;;;5054726;28;20025;-61
2021/08/20 07:02:43;;;;;;;16.70;12.68;;;17.10;99.90;;;;;;5054718;28;20043;-61
2021/08/20 07:05:33;;;;;;;13.43;11.07;;;17.10;99.90;;;;;;5054606;28;20415;-61
2021/08/20 07:07:58;;;;;;;13.75;10.48;;;17.20;99.90;;;;;;5055081;28;20040;-61
2021/08/20 07:10:54;;;;;;;12.23;9.93;;;17.20;99.90;;;;;;5054968;28;20445;-61
2021/08/20 07:13:20;;;;;;;14.50;12.32;;;17.30;99.90;;;;;;5054876;28;20477;-61
2021/08/20 07:15:50;;;;;;;14.52;11.73;;;17.30;99.90;;;;;;5054712;28;20025;-61
2021/08/20 07:18:16;;;;;;;14.90;12.68;;;17.40;99.90;;;;;;5036332;28;20033;-61
2021/08/20 07:20:41;;;;;;;17.83;13.98;;;17.50;99.90;;;;;;5035660;28;20013;-62
2021/08/20 07:23:07;;;;;;;16.40;12.60;;;17.60;99.90;;;;;;5052486;28;20028;-62
2021/08/20 07:25:33;;;;;;;14.05;12.27;;;17.70;99.90;;;;;;5054799;28;20408;-61
2021/08/20 07:27:58;;;;;;;16.23;13.07;;;17.80;99.90;;;;;;5054329;28;20148;-62
2021/08/20 07:30:24;;;;;;;15.52;12.80;;;17.90;99.90;;;;;;5054395;28;20088;-62
2021/08/20 07:32:49;;;;;;;16.77;13.52;;;17.90;99.90;;;;;;5054490;28;20452;-62
2021/08/20 07:35:15;;;;;;;15.30;13.55;;;17.90;99.90;;;;;;5054445;28;20074;-62
2021/08/20 07:37:42;;;;;;;16.45;13.65;;;17.90;99.90;;;;;;5054401;28;20358;-62
2021/08/20 07:40:08;;;;;;;15.57;13.15;;;18.00;99.90;;;;;;5043855;28;20025;-62
2021/08/20 07:43:00;;;;;;;19.70;13.38;;;18.00;99.90;;;;;;5050234;28;20021;-62
2021/08/20 07:45:26;;;;;;;17.63;14.88;;;18.20;99.90;;;;;;5052166;28;20139;-61
2021/08/20 07:47:51;;;;;;;15.35;13.38;;;18.30;99.90;;;;;;5053667;28;20401;-62
2021/08/20 07:50:17;;;;;;;15.98;13.98;;;18.50;99.90;;;;;;5053546;28;20036;-62
2021/08/20 07:56:05;;;;;;;16.73;14.70;;;18.60;99.90;;;;;;5001651;28;20120;-62
2021/08/20 07:58:30;;;;;;;15.13;13.38;;;18.70;99.90;;;;;;5049382;28;20119;-62
2021/08/20 08:04:27;;;;;;;15.73;14.05;;;18.80;99.90;;;;;;4991718;28;20084;-61
2021/08/20 08:06:58;;;;;;;17.85;15.32;;;18.80;99.90;;;;;;4984633;28;20045;-62
2021/08/20 08:09:23;;;;;;;14.57;12.98;;;18.90;99.90;;;;;;5040819;28;20033;-62
2021/08/20 08:12:10;;;;;;;16.88;13.98;;;19.00;99.90;;;;;;5053280;28;20029;-61
2021/08/20 08:14:36;;;;;;;16.38;13.70;;;19.00;99.90;;;;;;5052582;28;20396;-62
2021/08/20 08:17:01;;;;;;;18.35;15.48;;;19.00;99.90;;;;;;5035777;28;20017;-62
2021/08/20 08:19:27;;;;;;;18.40;15.38;;;19.10;99.90;;;;;;5053600;28;20104;-61
2021/08/20 08:21:52;;;;;;;15.25;13.68;;;19.20;99.90;;;;;;5053631;28;20142;-62
2021/08/20 08:24:18;;;;;;;16.88;15.10;;;19.30;99.90;;;;;;5048238;28;20076;-62
2021/08/20 08:26:43;;;;;;;16.50;14.80;;;19.40;99.90;;;;;;5046730;28;20029;-62
2021/08/20 08:29:09;;;;;;;18.25;14.25;;;19.60;99.80;;;;;;5053364;28;20078;-62
2021/08/20 08:31:34;;;;;;;15.35;13.75;;;19.70;99.50;;;;;;5053478;28;20029;-62
2021/08/20 08:34:00;;;;;;;16.40;14.70;;;19.80;99.30;;;;;;5053088;28;20473;-62
2021/08/20 08:36:25;;;;;;;16.08;14.38;;;19.90;99.10;;;;;;5053355;28;20029;-62
2021/08/20 08:38:51;;;;;;;15.18;13.20;;;20.10;98.80;;;;;;5052815;28;20079;-62
2021/08/20 08:41:20;;;;;;;13.60;11.50;;;20.20;98.40;;;;;;5051945;28;20032;-62
2021/08/20 08:43:45;;;;;;;14.70;13.10;;;20.30;98.20;;;;;;5052569;28;20017;-62
2021/08/20 08:46:39;;;;;;;13.15;11.75;;;20.40;97.80;;;;;;5052283;28;20274;-62
2021/08/20 08:49:06;;;;;;;13.95;12.45;;;20.50;97.50;;;;;;5034545;28;20430;-62
2021/08/20 08:51:32;;;;;;;13.15;11.80;;;20.50;97.30;;;;;;5051309;28;20087;-62
2021/08/20 08:53:59;;;;;;;13.45;12.00;;;20.50;97.00;;;;;;5050889;28;20032;-62
2021/08/20 08:56:24;;;;;;;13.45;12.00;;;20.60;97.00;;;;;;5034646;28;20077;-62
2021/08/20 08:58:53;;;;;;;14.32;11.77;;;20.60;97.00;;;;;;5052332;28;20048;-62
2021/08/20 09:01:55;;;;;;;10.55;9.52;;;20.60;96.90;;;;;;5034124;28;20028;-62
2021/08/20 09:04:24;;;;;;;11.80;10.60;;;20.80;96.70;;;;;;4971447;28;20023;-62
2021/08/20 09:06:56;;;;;;;11.95;10.20;;;20.80;96.60;;;;;;5037515;28;20041;-62
2021/08/20 09:09:24;;;;;;;10.63;9.52;;;20.90;96.40;;;;;;5051896;28;20032;-62
2021/08/20 09:11:53;;;;;;;12.05;9.30;;;21.00;96.30;;;;;;5051785;28;20036;-62
2021/08/20 09:15:00;;;;;;;10.85;9.35;;;21.10;96.10;;;;;;5034089;28;20059;-62
2021/08/20 09:20:45;;;;;;;11.35;10.15;;;21.10;95.70;;;;;;5025359;28;20083;-62
2021/08/20 09:23:23;;;;;;;13.27;11.52;;;21.10;95.70;;;;;;5051908;28;20454;-62
2021/08/20 09:25:50;;;;;;;12.63;11.18;;;21.10;95.50;;;;;;5051995;28;20029;-62
2021/08/20 09:28:19;;;;;;;11.90;10.70;;;21.10;95.50;;;;;;5051919;28;20512;-62
2021/08/20 09:30:54;;;;;;;11.93;10.70;;;21.20;95.50;;;;;;5051784;28;20036;-62
2021/08/20 09:33:44;;;;;;;;;;;;;;;;;;;;;
2021/08/20 09:36:13;;;;;;;11.15;9.90;;;21.40;95.10;;;;;;5051859;28;20025;-62
2021/08/20 09:38:51;;;;;;;11.90;10.68;;;21.50;95.00;;;;;;5051861;28;20182;-62
2021/08/20 09:41:30;;;;;;;10.77;9.40;;;21.50;94.60;;;;;;5051870;28;20013;-62
2021/08/20 09:44:01;;;;;;;10.98;9.88;;;21.60;94.50;;;;;;5051593;28;20025;-62
2021/08/20 09:46:45;;;;;;;10.30;9.30;;;21.60;94.30;;;;;;5051653;28;20045;-62
2021/08/20 09:49:13;;;;;;;9.93;8.93;;;21.70;94.20;;;;;;5051649;28;20017;-62
2021/08/20 09:51:42;;;;;;;9.87;8.87;;;21.80;94.10;;;;;;5053015;28;20568;-62
2021/08/20 09:54:11;;;;;;;8.93;8.02;;;22.00;93.90;;;;;;5053835;28;20059;-62
2021/08/20 09:56:37;;;;;;;9.30;8.30;;;22.20;93.40;;;;;;5038593;28;20079;-62
2021/08/20 09:59:07;;;;;;;8.52;7.63;;;22.40;93.10;;;;;;5056283;28;20480;-62
2021/08/20 10:01:35;;;;;;;7.70;6.90;;;22.60;92.90;;;;;;5051543;28;20025;-62
2021/08/20 10:04:06;;;;;;;8.85;7.95;;;22.70;92.70;;;;;;5052381;28;20052;-62
2021/08/20 10:06:37;;;;;;;8.57;7.78;;;22.80;92.50;;;;;;5055779;28;20053;-62
2021/08/20 10:09:06;;;;;;;10.20;9.20;;;22.90;92.30;;;;;;5055427;28;20413;-63
2021/08/20 10:11:35;;;;;;;10.07;8.93;;;22.80;91.90;;;;;;5055764;28;20025;-63
2021/08/20 10:14:19;;;;;;;10.77;9.68;;;22.80;91.90;;;;;;5055180;28;20071;-62
2021/08/20 10:19:58;;;;;;;9.57;8.60;;;22.60;91.90;;;;;;5021700;28;20040;-62
2021/08/20 10:22:25;;;;;;;9.85;8.88;;;22.70;92.10;;;;;;5055275;28;20021;-62
2021/08/20 10:24:50;;;;;;;8.63;7.80;;;22.70;92.00;;;;;;5054680;28;20485;-62
2021/08/20 10:27:17;;;;;;;9.43;8.48;;;22.70;92.10;;;;;;5054953;28;20036;-63
2021/08/20 10:29:49;;;;;;;9.50;8.50;;;22.70;91.90;;;;;;5055690;28;20028;-63
2021/08/20 10:32:16;;;;;;;9.20;8.35;;;22.80;91.60;;;;;;5054511;28;20504;-63
2021/08/20 10:34:42;;;;;;;8.93;8.02;;;22.90;91.70;;;;;;5054394;28;20021;-62
2021/08/20 10:37:12;;;;;;;8.85;8.05;;;23.00;91.30;;;;;;5036403;28;20511;-63
2021/08/20 10:39:46;;;;;;;8.98;8.07;;;23.10;91.10;;;;;;5053839;28;20036;-62
2021/08/20 10:42:14;;;;;;;7.43;6.72;;;23.20;90.90;;;;;;5054057;28;20017;-62
2021/08/20 10:44:41;;;;;;;7.93;7.13;;;23.40;90.80;;;;;;5054108;28;20044;-62
2021/08/20 10:47:08;;;;;;;7.63;6.88;;;23.50;90.80;;;;;;5055523;28;20476;-63
2021/08/20 10:49:55;;;;;;;8.15;7.35;;;23.60;90.60;;;;;;5055481;28;20028;-63
2021/08/20 10:59:39;;;;;;;7.70;7.00;;;24.00;89.60;;;;;;4954338;28;20546;-62
2021/08/20 11:02:19;;;;;;;6.72;6.13;;;23.70;89.30;;;;;;4969222;28;20069;-63
2021/08/20 11:05:03;;;;;;;7.15;6.47;;;23.60;89.00;;;;;;5024347;28;20083;-62
2021/08/20 11:07:34;;;;;;;6.90;6.30;;;23.70;88.70;;;;;;5054226;28;20024;-63
2021/08/20 11:10:23;;;;;;;6.80;5.43;;;24.00;88.40;;;;;;5051731;28;20021;-62
2021/08/20 11:12:52;;;;;;;5.95;5.35;;;24.30;88.20;;;;;;5048348;28;20029;-62
2021/08/20 11:15:18;;;;;;;5.82;5.22;;;24.50;87.00;;;;;;5049868;28;20024;-63
2021/08/20 11:17:56;;;;;;;6.35;5.75;;;24.60;86.60;;;;;;5052058;28;20021;-63
2021/08/20 11:20:41;;;;;;;9.73;8.40;;;24.70;86.10;;;;;;5053483;28;20021;-63
2021/08/20 11:23:55;;;;;;;6.93;6.03;;;24.60;83.30;;;;;;5052095;28;20476;-63
2021/08/20 11:26:30;;;;;;;9.20;8.30;;;24.80;84.00;;;;;;5052818;28;20115;-62
2021/08/20 11:28:56;;;;;;;7.47;6.65;;;25.10;81.70;;;;;;5053239;28;20503;-63
2021/08/20 11:31:24;;;;;;;8.90;8.00;;;25.30;81.70;;;;;;5053037;28;20104;-63
2021/08/20 11:33:50;;;;;;;6.97;6.20;;;25.50;80.10;;;;;;5053770;28;20013;-63
2021/08/20 11:36:22;;;;;;;6.70;6.10;;;25.60;79.60;;;;;;5053761;28;20044;-63
2021/08/20 11:38:53;;;;;;;6.82;6.18;;;25.70;79.20;;;;;;5054079;28;20079;-63
2021/08/20 11:42:00;;;;;;;8.00;5.90;;;25.90;79.30;;;;;;5053310;28;20029;-63
2021/08/20 11:44:26;;;;;;;7.72;6.93;;;26.20;79.00;;;;;;4979887;28;20122;-63
2021/08/20 11:46:53;;;;;;;6.00;5.35;;;26.20;76.60;;;;;;5049803;28;20108;-63
2021/08/20 11:49:27;;;;;;;10.02;8.13;;;26.00;76.10;;;;;;5053948;28;20017;-62
2021/08/20 11:52:22;;;;;;;7.07;6.40;;;25.70;75.20;;;;;;5054013;28;20029;-63
2021/08/20 11:54:47;;;;;;;6.88;6.28;;;25.70;76.50;;;;;;5009428;28;20043;-63
2021/08/20 11:57:13;;;;;;;6.78;5.35;;;25.90;76.20;;;;;;5053303;28;20029;-63
2021/08/20 11:59:53;;;;;;;6.40;5.57;;;26.50;76.00;;;;;;5052956;28;20028;-63
2021/08/20 12:02:22;;;;;;;5.90;5.40;;;27.00;74.10;;;;;;5053387;28;20043;-63
2021/08/20 12:04:47;;;;;;;7.82;6.97;;;27.40;73.90;;;;;;5053448;28;20025;-63
2021/08/20 12:07:32;;;;;;;6.28;5.68;;;27.70;71.20;;;;;;5053853;28;20029;-63
2021/08/20 12:10:23;;;;;;;;;;;;;;;;;;;;;
2021/08/20 12:12:49;;;;;;;8.00;7.30;;;28.40;70.60;;;;;;5053263;28;20037;-63
2021/08/20 12:15:15;;;;;;;7.63;6.72;;;28.40;69.80;;;;;;5052407;28;20099;-63
2021/08/20 12:18:17;;;;;;;9.43;8.63;;;28.70;70.10;;;;;;5053662;28;20025;-63
2021/08/20 12:20:42;;;;;;;10.20;9.25;;;28.90;67.20;;;;;;5053757;28;20025;-63
2021/08/20 12:23:08;;;;;;;9.25;8.35;;;28.50;67.30;;;;;;5053446;28;20096;-63
2021/08/20 12:25:39;;;;;;;9.88;8.98;;;28.70;67.20;;;;;;5041256;28;20029;-63
2021/08/20 12:28:19;;;;;;;6.68;6.13;;;28.60;65.80;;;;;;5035446;28;20072;-64
2021/08/20 12:30:46;;;;;;;9.57;8.63;;;28.40;66.30;;;;;;5053319;28;20280;-63
2021/08/20 12:33:16;;;;;;;8.10;7.40;;;28.60;66.60;;;;;;5053023;28;20386;-63
2021/08/20 12:35:50;;;;;;;9.50;8.60;;;29.00;65.60;;;;;;5051611;28;20017;-63
2021/08/20 12:38:21;;;;;;;9.48;8.48;;;29.00;64.60;;;;;;5053221;28;20374;-63
2021/08/20 12:40:55;;;;;;;9.63;8.82;;;29.10;65.20;;;;;;5052836;28;20029;-63
2021/08/20 12:43:20;;;;;;;8.43;7.78;;;29.30;65.00;;;;;;5049794;28;20362;-63
2021/08/20 12:46:35;;;;;;;8.52;7.78;;;29.60;65.30;;;;;;5052374;28;20056;-63
2021/08/20 12:49:02;;;;;;;8.82;7.95;;;29.70;64.60;;;;;;5052247;28;20476;-63
2021/08/20 12:51:28;;;;;;;12.45;11.30;;;29.80;64.80;;;;;;5044618;28;20121;-63
2021/08/20 12:54:28;;;;;;;11.85;10.85;;;29.50;63.50;;;;;;5051028;28;20143;-63
2021/08/20 12:57:44;;;;;;;;;;;;;;;;;;;;;
2021/08/20 13:00:10;;;;;;;7.55;6.90;;;29.00;63.40;;;;;;5052834;28;20031;-63
2021/08/20 13:02:36;;;;;;;8.50;7.60;;;29.30;64.40;;;;;;5034077;28;20091;-63
2021/08/20 13:05:05;;;;;;;8.50;7.72;;;29.80;64.40;;;;;;5053642;28;20021;-63
2021/08/20 13:07:31;;;;;;;6.55;5.95;;;30.20;63.80;;;;;;5052193;28;20020;-63